Ana Sayfa
METAR-TAF:

METAR-TAF

Havaalanları :

Cortez, Colorado, Amerika Birleşik Devletleri

Enlem: 37-18-23N, Boylam: 108-37-32W, yükseklik: 1803 m

Güncel hava durumu gözlemi

Rapor saat 13:53 UTC de 26 dakika önce yapıldı.
Rüzgar doğu/kuzeydoğudan 6 kt
Sıcaklık -10°C
Nem 79%
Basınç 1030 hPa
Görüş mesafesi: 16.1 km
Açık gökyüzü

METAR: KCEZ 281353Z AUTO 06006KT 10SM CLR M10/M13 A3041 RMK AO2 SLP315 T11001128

Saat: 07:19 (14:19 UTC)


TAF: eksik

4.000'den fazla havaalanı için hava durumu gözlemleri ve tahminleri (METAR ve TAF raporları).

Kullanılabilir istasyonlar harita üzerinde sarı ve kırmızı noktalarla gösterilir.

İstasyonun adını görmek için fareyi noktanın üzerinde gezdirin.

Sonrasında hava gözlem ve tahminlerini görmek için tıklayın.

Haritayı değiştirmek için: yaklaştırmak için siyah artı işaretli yeşil düğmeye ve uzaklaştırmak için de eksi işaretli düğmeye hızla tıklayın; bitişik haritalar için yeşil okları kullanın.


METAR-TAF: